createdAt,value
2019-04-13T00:00:04.487Z,4.20
2019-04-13T00:01:57.381Z,4.32
2019-04-13T00:02:57.388Z,4.33
2019-04-13T00:04:50.291Z,4.20
2019-04-13T00:05:50.297Z,4.24
2019-04-13T00:07:43.192Z,4.24
2019-04-13T00:08:43.199Z,4.20
2019-04-13T00:10:36.083Z,4.20
2019-04-13T00:11:36.091Z,4.22
2019-04-13T00:13:28.991Z,4.15
2019-04-13T00:14:28.991Z,4.11
2019-04-13T00:16:21.883Z,4.06
2019-04-13T00:17:21.888Z,4.11
2019-04-13T00:19:14.788Z,4.14
2019-04-13T00:20:14.791Z,4.16
2019-04-13T00:22:07.684Z,4.12
2019-04-13T00:23:07.693Z,4.05
2019-04-13T00:25:00.590Z,4.09
2019-04-13T00:26:00.589Z,3.98
2019-04-13T00:27:53.491Z,4.02
2019-04-13T00:28:53.493Z,4.04
2019-04-13T00:30:46.390Z,3.83
2019-04-13T00:31:46.389Z,3.84
2019-04-13T00:33:39.292Z,3.96
2019-04-13T00:34:41.638Z,3.96
2019-04-13T00:36:32.179Z,4.06
2019-04-13T00:37:32.187Z,4.06
2019-04-13T00:39:25.084Z,4.02
2019-04-13T00:40:25.084Z,3.98
2019-04-13T00:42:17.980Z,3.98
2019-04-13T00:43:17.985Z,3.94
2019-04-13T00:45:10.885Z,3.83
2019-04-13T00:46:10.946Z,3.83
2019-04-13T00:48:03.783Z,3.97
2019-04-13T00:49:03.785Z,3.88
2019-04-13T00:50:56.675Z,3.88
2019-04-13T00:51:56.682Z,3.90
2019-04-13T00:53:49.582Z,3.78
2019-04-13T00:54:49.581Z,3.84
2019-04-13T00:56:42.473Z,3.88
2019-04-13T00:57:42.479Z,3.84
2019-04-13T00:59:35.377Z,3.73
2019-04-13T01:00:35.377Z,3.69
2019-04-13T01:02:28.271Z,3.68
2019-04-13T01:03:28.276Z,3.72
2019-04-13T01:05:21.179Z,3.72
2019-04-13T01:06:21.175Z,3.73
2019-04-13T01:08:14.074Z,3.69
2019-04-13T01:09:14.074Z,3.61
2019-04-13T01:11:06.967Z,3.58
2019-04-13T01:12:06.970Z,3.68
2019-04-13T01:13:59.871Z,3.55
2019-04-13T01:14:59.868Z,3.55
2019-04-13T01:16:52.763Z,3.61
2019-04-13T01:17:52.771Z,3.61
2019-04-13T01:19:45.672Z,3.55
2019-04-13T01:20:45.670Z,3.50
2019-04-13T01:22:38.563Z,3.50
2019-04-13T01:23:38.568Z,3.52
2019-04-13T01:25:31.470Z,3.61
2019-04-13T01:26:31.467Z,3.60
2019-04-13T01:28:24.367Z,3.50
2019-04-13T01:29:24.366Z,3.60
2019-04-13T01:31:17.263Z,3.50
2019-04-13T01:32:17.267Z,3.47
2019-04-13T01:34:10.165Z,3.43
2019-04-13T01:35:10.162Z,3.55
2019-04-13T01:37:03.056Z,3.43
2019-04-13T01:38:03.062Z,3.40
2019-04-13T01:39:55.964Z,3.40
2019-04-13T01:40:55.961Z,3.29
2019-04-13T01:42:48.858Z,3.35
2019-04-13T01:43:48.863Z,3.24
2019-04-13T01:45:41.762Z,3.32
2019-04-13T01:46:41.760Z,3.47
2019-04-13T01:48:34.659Z,3.39
2019-04-13T01:49:34.657Z,3.29
2019-04-13T01:51:27.548Z,3.31
2019-04-13T01:52:27.554Z,3.33
2019-04-13T01:54:20.453Z,3.21
2019-04-13T01:55:20.450Z,3.24
2019-04-13T01:57:13.346Z,3.14
2019-04-13T01:58:13.351Z,3.21
2019-04-13T02:00:06.742Z,3.31
2019-04-13T02:01:06.742Z,3.17
2019-04-13T02:02:59.637Z,3.08
2019-04-13T02:03:59.641Z,3.13
2019-04-13T02:05:52.541Z,3.14
2019-04-13T02:06:52.538Z,3.14
2019-04-13T02:08:45.438Z,3.08
2019-04-13T02:09:45.437Z,3.11
2019-04-13T02:11:38.330Z,3.21
2019-04-13T02:12:38.336Z,3.10
2019-04-13T02:14:31.235Z,3.21
2019-04-13T02:15:31.235Z,3.20
2019-04-13T02:17:24.128Z,3.11
2019-04-13T02:18:24.134Z,3.14
2019-04-13T02:20:17.035Z,3.14
2019-04-13T02:21:17.034Z,3.15
2019-04-13T02:23:09.930Z,3.14
2019-04-13T02:24:09.931Z,3.14
2019-04-13T02:26:02.833Z,3.11
2019-04-13T02:27:02.830Z,3.14
2019-04-13T02:28:55.726Z,3.14
2019-04-13T02:29:55.727Z,3.13
2019-04-13T02:31:48.623Z,3.17
2019-04-13T02:32:48.622Z,3.13
2019-04-13T02:34:41.524Z,3.21
2019-04-13T02:35:41.520Z,3.24
2019-04-13T02:37:34.413Z,3.28
2019-04-13T02:38:34.416Z,3.28
2019-04-13T02:40:27.314Z,3.31
2019-04-13T02:41:27.334Z,3.31
2019-04-13T02:43:20.207Z,3.29
2019-04-13T02:44:20.213Z,3.14
2019-04-13T02:46:13.110Z,3.18
2019-04-13T02:47:13.110Z,3.28
2019-04-13T02:49:06.012Z,3.24
2019-04-13T02:50:06.009Z,3.29
2019-04-13T02:51:58.902Z,3.26
2019-04-13T02:52:58.919Z,3.14
2019-04-13T02:54:51.804Z,3.17
2019-04-13T02:55:51.803Z,3.18
2019-04-13T02:57:44.697Z,3.20
2019-04-13T02:58:44.702Z,3.13
2019-04-13T03:00:37.600Z,3.15
2019-04-13T03:01:37.598Z,3.08
2019-04-13T03:03:30.493Z,3.20
2019-04-13T03:04:30.494Z,3.06
2019-04-13T03:06:23.394Z,3.14
2019-04-13T03:07:23.391Z,3.17
2019-04-13T03:09:16.292Z,3.11
2019-04-13T03:10:16.290Z,3.11
2019-04-13T03:12:09.185Z,2.97
2019-04-13T03:13:09.189Z,3.03
2019-04-13T03:15:02.085Z,3.03
2019-04-13T03:16:02.084Z,3.02
2019-04-13T03:17:54.976Z,2.99
2019-04-13T03:18:54.981Z,2.90
2019-04-13T03:20:47.878Z,2.90
2019-04-13T03:21:47.878Z,2.96
2019-04-13T03:23:40.768Z,2.92
2019-04-13T03:24:40.772Z,2.92
2019-04-13T03:26:33.675Z,2.92
2019-04-13T03:27:33.668Z,2.92
2019-04-13T03:29:26.583Z,2.95
2019-04-13T03:30:26.575Z,2.99
2019-04-13T03:32:19.462Z,2.92
2019-04-13T03:33:19.468Z,2.99
2019-04-13T03:35:12.371Z,2.96
2019-04-13T03:36:12.361Z,2.95
2019-04-13T03:38:05.257Z,2.96
2019-04-13T03:39:05.258Z,2.95
2019-04-13T03:40:58.159Z,2.90
2019-04-13T03:41:58.155Z,2.95
2019-04-13T03:43:51.074Z,2.92
2019-04-13T03:44:51.074Z,3.02
2019-04-13T03:46:43.969Z,3.11
2019-04-13T03:47:43.968Z,3.05
2019-04-13T03:49:36.868Z,3.03
2019-04-13T03:50:36.867Z,3.03
2019-04-13T03:52:29.781Z,3.08
2019-04-13T03:53:29.763Z,3.11
2019-04-13T03:55:22.661Z,3.08
2019-04-13T03:56:22.661Z,3.02
2019-04-13T03:58:15.555Z,3.02
2019-04-13T03:59:15.558Z,2.89
2019-04-13T04:01:08.461Z,2.95
2019-04-13T04:02:08.458Z,2.96
2019-04-13T04:04:01.354Z,2.97
2019-04-13T04:05:01.358Z,2.96
2019-04-13T04:06:54.263Z,3.03
2019-04-13T04:07:54.257Z,2.96
2019-04-13T04:09:47.156Z,3.06
2019-04-13T04:10:47.154Z,3.06
2019-04-13T04:12:40.047Z,3.02
2019-04-13T04:13:40.053Z,2.97
2019-04-13T04:15:32.951Z,2.99
2019-04-13T04:16:32.952Z,3.03
2019-04-13T04:18:25.844Z,3.06
2019-04-13T04:19:25.853Z,2.97
2019-04-13T04:21:18.750Z,3.00
2019-04-13T04:22:18.750Z,2.95
2019-04-13T04:24:11.640Z,2.87
2019-04-13T04:25:11.644Z,2.96
2019-04-13T04:27:04.543Z,2.95
2019-04-13T04:28:04.545Z,2.92
2019-04-13T04:29:57.447Z,2.97
2019-04-13T04:30:57.440Z,2.87
2019-04-13T04:32:50.336Z,2.97
2019-04-13T04:33:50.341Z,2.96
2019-04-13T04:35:43.238Z,2.95
2019-04-13T04:36:43.236Z,2.97
2019-04-13T04:38:36.128Z,3.02
2019-04-13T04:39:36.133Z,3.03
2019-04-13T04:41:29.031Z,3.08
2019-04-13T04:42:29.031Z,3.05
2019-04-13T04:44:21.926Z,3.08
2019-04-13T04:45:21.926Z,3.03
2019-04-13T04:47:14.825Z,3.17
2019-04-13T04:48:14.825Z,3.08
2019-04-13T04:50:07.723Z,3.17
2019-04-13T04:51:11.244Z,3.06
2019-04-13T04:53:00.617Z,3.18
2019-04-13T04:54:00.619Z,3.05
2019-04-13T04:55:53.520Z,3.11
2019-04-13T04:56:53.520Z,3.10
2019-04-13T04:58:46.410Z,3.21
2019-04-13T04:59:46.423Z,3.14
2019-04-13T05:01:39.316Z,3.24
2019-04-13T05:02:39.316Z,3.31
2019-04-13T05:04:32.210Z,3.24
2019-04-13T05:05:32.214Z,3.29
2019-04-13T05:07:25.116Z,3.29
2019-04-13T05:08:25.118Z,3.28
2019-04-13T05:10:18.016Z,3.33
2019-04-13T05:11:18.015Z,3.40
2019-04-13T05:13:10.908Z,3.43
2019-04-13T05:14:10.913Z,3.55
2019-04-13T05:16:03.812Z,3.50
2019-04-13T05:17:03.811Z,3.50
2019-04-13T05:18:56.710Z,3.45
2019-04-13T05:19:56.711Z,3.52
2019-04-13T05:21:50.108Z,3.47
2019-04-13T05:22:50.107Z,3.60
2019-04-13T05:24:42.999Z,3.51
2019-04-13T05:25:43.005Z,3.48
2019-04-13T05:27:35.905Z,3.40
2019-04-13T05:28:35.906Z,3.40
2019-04-13T05:30:28.806Z,3.48
2019-04-13T05:31:28.805Z,3.40
2019-04-13T05:33:21.698Z,3.51
2019-04-13T05:34:21.704Z,3.48
2019-04-13T05:36:14.602Z,3.55
2019-04-13T05:37:14.601Z,3.47
2019-04-13T05:39:07.494Z,3.51
2019-04-13T05:40:07.501Z,3.52
2019-04-13T05:42:00.400Z,3.47
2019-04-13T05:43:00.446Z,3.62
2019-04-13T05:44:53.293Z,3.60
2019-04-13T05:45:53.298Z,3.60
2019-04-13T05:47:46.200Z,3.61
2019-04-13T05:48:46.197Z,3.60
2019-04-13T05:50:39.099Z,3.58
2019-04-13T05:51:39.099Z,3.62
2019-04-13T05:53:31.988Z,3.60
2019-04-13T05:54:31.994Z,3.76
2019-04-13T05:56:24.907Z,3.69
2019-04-13T05:57:24.907Z,3.68
2019-04-13T05:59:17.803Z,3.69
2019-04-13T06:00:17.805Z,3.65
2019-04-13T06:02:10.756Z,3.72
2019-04-13T06:03:10.708Z,3.68
2019-04-13T06:05:03.641Z,3.70
2019-04-13T06:06:03.607Z,3.66
2019-04-13T06:07:56.999Z,3.62
2019-04-13T06:08:57.001Z,3.65
2019-04-13T06:10:50.101Z,3.66
2019-04-13T06:11:49.898Z,3.68
2019-04-13T06:13:42.840Z,3.66
2019-04-13T06:14:42.797Z,3.62
2019-04-13T06:16:37.527Z,3.61
2019-04-13T06:17:35.694Z,3.72
2019-04-13T06:19:28.589Z,3.86
2019-04-13T06:20:28.596Z,3.80
2019-04-13T06:22:21.493Z,3.93
2019-04-13T06:23:21.495Z,3.98
2019-04-13T06:25:14.386Z,3.93
2019-04-13T06:26:14.391Z,4.08
2019-04-13T06:28:07.294Z,4.15
2019-04-13T06:29:07.292Z,4.08
2019-04-13T06:31:00.834Z,4.20
2019-04-13T06:32:00.193Z,4.22
2019-04-13T06:33:53.086Z,4.32
2019-04-13T06:34:53.091Z,4.18
2019-04-13T06:36:45.994Z,4.16
2019-04-13T06:37:48.311Z,4.12
2019-04-13T06:39:38.887Z,4.11
2019-04-13T06:40:40.878Z,4.11
2019-04-13T06:42:31.793Z,4.00
2019-04-13T06:43:31.795Z,3.91
2019-04-13T06:45:24.692Z,3.93
2019-04-13T06:46:24.694Z,3.86
2019-04-13T06:48:17.602Z,3.80
2019-04-13T06:49:19.718Z,3.75
2019-04-13T06:51:10.487Z,3.72
2019-04-13T06:52:10.497Z,3.78
2019-04-13T06:54:03.391Z,3.86
2019-04-13T06:55:03.391Z,3.90
2019-04-13T06:56:56.291Z,3.91
2019-04-13T06:57:56.296Z,4.08
2019-04-13T06:59:49.677Z,3.97
2019-04-13T07:00:49.688Z,4.09
2019-04-13T07:02:42.655Z,4.11
2019-04-13T07:03:42.585Z,4.16
2019-04-13T07:05:35.475Z,4.32
2019-04-13T07:06:46.963Z,4.27
2019-04-13T07:08:37.881Z,4.32
2019-04-13T07:09:39.818Z,4.40
2019-04-13T07:11:21.504Z,4.50
2019-04-13T07:12:21.293Z,4.47
2019-04-13T07:14:14.384Z,4.45
2019-04-13T07:15:14.280Z,4.33
2019-04-13T07:17:07.181Z,4.14
2019-04-13T07:18:07.210Z,4.18
2019-04-13T07:20:00.076Z,4.11
2019-04-13T07:21:00.092Z,4.15
2019-04-13T07:22:54.143Z,4.11
2019-04-13T07:23:52.994Z,4.12
2019-04-13T07:25:45.877Z,4.29
2019-04-13T07:26:45.886Z,4.36
2019-04-13T07:28:38.871Z,4.44
2019-04-13T07:29:38.868Z,4.54
2019-04-13T07:31:32.007Z,4.60
2019-04-13T07:32:32.017Z,4.60
2019-04-13T07:34:24.693Z,4.70
2019-04-13T07:35:24.682Z,4.70
2019-04-13T07:37:17.584Z,4.67
2019-04-13T07:38:17.587Z,4.82
2019-04-13T07:40:10.482Z,4.78
2019-04-13T07:41:10.490Z,4.82
2019-04-13T07:43:03.391Z,4.72
2019-04-13T07:44:03.393Z,4.77
2019-04-13T07:45:56.788Z,4.84
2019-04-13T07:46:56.790Z,4.82
2019-04-13T07:48:49.711Z,4.86
2019-04-13T07:49:49.696Z,4.84
2019-04-13T07:51:42.588Z,4.73
2019-04-13T07:52:42.597Z,4.58
2019-04-13T07:54:35.495Z,4.63
2019-04-13T07:55:36.443Z,4.54
2019-04-13T07:57:28.401Z,4.65
2019-04-13T07:58:28.400Z,4.70
2019-04-13T08:00:21.305Z,4.85
2019-04-13T08:01:23.449Z,4.86
2019-04-13T08:03:14.212Z,5.13
2019-04-13T08:04:14.211Z,5.15
2019-04-13T08:06:07.106Z,5.25
2019-04-13T08:07:07.113Z,5.27
2019-04-13T08:09:00.014Z,5.45
2019-04-13T08:10:00.019Z,5.56
2019-04-13T08:11:52.916Z,5.76
2019-04-13T08:12:52.921Z,5.90
2019-04-13T08:14:45.824Z,5.97
2019-04-13T08:15:45.825Z,6.12
2019-04-13T08:17:38.733Z,6.34
2019-04-13T08:18:41.217Z,6.30
2019-04-13T08:20:34.120Z,6.30
2019-04-13T08:21:33.340Z,6.37
2019-04-13T08:23:26.929Z,6.31
2019-04-13T08:24:24.545Z,6.30
2019-04-13T08:26:17.447Z,6.44
2019-04-13T08:27:17.455Z,6.49
2019-04-13T08:29:10.359Z,6.64
2019-04-13T08:30:10.362Z,6.74
2019-04-13T08:32:03.269Z,6.88
2019-04-13T08:33:03.271Z,6.94
2019-04-13T08:34:57.527Z,6.84
2019-04-13T08:35:58.224Z,6.88
2019-04-13T08:37:55.263Z,6.91
2019-04-13T08:38:58.561Z,7.07
2019-04-13T08:40:46.234Z,7.16
2019-04-13T08:41:41.992Z,7.06
2019-04-13T08:43:34.913Z,7.05
2019-04-13T08:44:36.722Z,7.02
2019-04-13T08:46:28.293Z,6.97
2019-04-13T08:47:27.813Z,6.94
2019-04-13T08:49:20.721Z,6.87
2019-04-13T08:50:20.715Z,6.94
2019-04-13T08:52:13.612Z,7.03
2019-04-13T08:53:13.623Z,7.06
2019-04-13T08:55:06.525Z,6.94
2019-04-13T08:56:06.528Z,6.95
2019-04-13T08:57:59.489Z,6.85
2019-04-13T08:58:59.978Z,6.79
2019-04-13T09:00:52.391Z,6.87
2019-04-13T09:01:52.401Z,6.99
2019-04-13T09:03:45.307Z,6.87
2019-04-13T09:04:45.310Z,6.89
2019-04-13T09:06:38.209Z,6.89
2019-04-13T09:07:39.224Z,6.77
2019-04-13T09:09:35.476Z,6.85
2019-04-13T09:10:31.756Z,6.81
2019-04-13T09:12:24.678Z,6.94
2019-04-13T09:13:25.078Z,6.91
2019-04-13T09:15:17.017Z,6.87
2019-04-13T09:16:16.939Z,6.80
2019-04-13T09:18:09.850Z,6.69
2019-04-13T09:19:12.432Z,6.73
2019-04-13T09:21:05.819Z,6.58
2019-04-13T09:22:02.759Z,6.67
2019-04-13T09:23:55.660Z,6.80
2019-04-13T09:24:55.663Z,6.94
2019-04-13T09:26:48.560Z,6.91
2019-04-13T09:27:48.568Z,7.03
2019-04-13T09:29:41.488Z,6.87
2019-04-13T09:30:41.479Z,7.02
2019-04-13T09:32:34.380Z,7.03
2019-04-13T09:33:35.420Z,7.10
2019-04-13T09:35:27.296Z,7.34
2019-04-13T09:36:28.948Z,7.43
2019-04-13T09:38:20.202Z,7.53
2019-04-13T09:39:21.850Z,7.64
2019-04-13T09:41:13.110Z,7.71
2019-04-13T09:42:13.118Z,7.71
2019-04-13T09:44:06.035Z,7.74
2019-04-13T09:45:06.043Z,7.83
2019-04-13T09:46:58.926Z,7.69
2019-04-13T09:47:58.934Z,7.72
2019-04-13T09:49:51.850Z,7.68
2019-04-13T09:50:51.846Z,7.58
2019-04-13T09:52:44.746Z,7.49
2019-04-13T09:53:44.754Z,7.53
2019-04-13T09:55:37.657Z,7.77
2019-04-13T09:56:37.853Z,7.75
2019-04-13T09:58:35.025Z,7.85
2019-04-13T09:59:30.568Z,7.92
2019-04-13T10:01:23.469Z,7.92
2019-04-13T10:02:26.081Z,7.72
2019-04-13T10:04:16.383Z,7.71
2019-04-13T10:05:16.386Z,7.75
2019-04-13T10:07:09.289Z,7.55
2019-04-13T10:08:09.296Z,7.60
2019-04-13T10:10:02.203Z,7.46
2019-04-13T10:11:02.205Z,7.45
2019-04-13T10:12:55.107Z,7.45
2019-04-13T10:13:55.112Z,7.39
2019-04-13T10:15:48.682Z,7.10
2019-04-13T10:16:50.561Z,7.10
2019-04-13T10:18:40.934Z,7.10
2019-04-13T10:19:40.931Z,7.09
2019-04-13T10:21:33.827Z,7.15
2019-04-13T10:22:33.835Z,7.12
2019-04-13T10:24:26.743Z,7.16
2019-04-13T10:25:26.744Z,7.16
2019-04-13T10:27:20.017Z,7.16
2019-04-13T10:28:19.652Z,7.10
2019-04-13T10:30:12.558Z,7.13
2019-04-13T10:31:12.561Z,7.16
2019-04-13T10:33:05.459Z,7.13
2019-04-13T10:34:05.466Z,7.15
2019-04-13T10:35:59.358Z,7.12
2019-04-13T10:36:59.364Z,7.23
2019-04-13T10:38:52.265Z,7.27
2019-04-13T10:39:52.267Z,7.28
2019-04-13T10:41:45.166Z,7.21
2019-04-13T10:42:45.178Z,7.23
2019-04-13T10:44:41.747Z,7.21
2019-04-13T10:45:38.082Z,7.32
2019-04-13T10:47:31.036Z,7.43
2019-04-13T10:48:31.000Z,7.45
2019-04-13T10:50:23.892Z,7.68
2019-04-13T10:51:23.897Z,7.69
2019-04-13T10:53:16.796Z,7.93
2019-04-13T10:54:16.806Z,8.05
2019-04-13T10:56:09.712Z,8.04
2019-04-13T10:57:09.716Z,8.12
2019-04-13T10:59:02.634Z,8.16
2019-04-13T11:00:02.629Z,8.33
2019-04-13T11:01:55.532Z,8.34
2019-04-13T11:02:55.539Z,8.48
2019-04-13T11:04:48.445Z,8.45
2019-04-13T11:05:48.449Z,8.36
2019-04-13T11:07:41.353Z,8.52
2019-04-13T11:08:41.360Z,8.45
2019-04-13T11:10:34.822Z,8.33
2019-04-13T11:11:34.270Z,8.18
2019-04-13T11:13:27.168Z,8.08
2019-04-13T11:14:27.178Z,8.10
2019-04-13T11:16:20.085Z,8.20
2019-04-13T11:17:20.092Z,8.41
2019-04-13T11:19:12.991Z,8.65
2019-04-13T11:20:14.654Z,8.71
2019-04-13T11:22:05.969Z,8.65
2019-04-13T11:23:05.916Z,8.68
2019-04-13T11:24:58.818Z,8.65
2019-04-13T11:26:01.008Z,8.56
2019-04-13T11:27:51.724Z,8.26
2019-04-13T11:28:51.731Z,8.29
2019-04-13T11:30:44.641Z,8.23
2019-04-13T11:31:44.643Z,8.28
2019-04-13T11:33:37.546Z,8.34
2019-04-13T11:34:37.554Z,8.47
2019-04-13T11:36:30.458Z,8.34
2019-04-13T11:37:32.488Z,8.38
2019-04-13T11:39:33.423Z,8.29
2019-04-13T11:40:23.379Z,8.36
2019-04-13T11:42:16.285Z,8.34
2019-04-13T11:43:16.289Z,8.36
2019-04-13T11:45:09.195Z,8.22
2019-04-13T11:46:09.199Z,8.05
2019-04-13T11:48:02.100Z,7.90
2019-04-13T11:49:02.110Z,7.79
2019-04-13T11:50:59.657Z,7.27
2019-04-13T11:51:55.017Z,6.99
2019-04-13T11:53:47.920Z,6.48
2019-04-13T11:54:47.930Z,6.36
2019-04-13T11:56:40.836Z,6.22
2019-04-13T11:57:40.839Z,6.11
2019-04-13T11:59:33.735Z,6.19
2019-04-13T12:00:33.746Z,6.19
2019-04-13T12:02:26.888Z,6.25
2019-04-13T12:03:26.650Z,6.28
2019-04-13T12:05:19.557Z,6.44
2019-04-13T12:06:19.554Z,6.69
2019-04-13T12:08:12.458Z,6.94
2019-04-13T12:09:12.463Z,6.98
2019-04-13T12:11:05.375Z,7.24
2019-04-13T12:12:05.371Z,7.42
2019-04-13T12:14:00.313Z,7.61
2019-04-13T12:14:58.279Z,7.67
2019-04-13T12:16:51.182Z,7.98
2019-04-13T12:17:52.085Z,7.97
2019-04-13T12:19:44.088Z,8.11
2019-04-13T12:20:44.134Z,8.12
2019-04-13T12:22:37.001Z,8.19
2019-04-13T12:23:37.002Z,8.22
2019-04-13T12:25:29.911Z,8.19
2019-04-13T12:26:29.916Z,8.22
2019-04-13T12:28:22.814Z,8.23
2019-04-13T12:29:22.824Z,8.12
2019-04-13T12:31:15.732Z,8.12
2019-04-13T12:32:15.737Z,8.18
2019-04-13T12:34:08.631Z,8.20
2019-04-13T12:35:11.501Z,8.33
2019-04-13T12:37:03.708Z,8.45
2019-04-13T12:38:03.640Z,8.53
2019-04-13T12:40:02.728Z,8.68
2019-04-13T12:40:54.468Z,8.58
2019-04-13T12:42:47.382Z,8.45
2019-04-13T12:43:47.389Z,8.45
2019-04-13T12:45:40.299Z,8.23
2019-04-13T12:46:40.302Z,8.10
2019-04-13T12:48:33.696Z,7.77
2019-04-13T12:49:33.707Z,7.48
2019-04-13T12:51:26.614Z,7.25
2019-04-13T12:52:26.617Z,7.25
2019-04-13T12:54:19.520Z,6.91
2019-04-13T12:55:20.083Z,6.64
2019-04-13T12:57:15.834Z,6.25
2019-04-13T12:58:12.433Z,6.22
2019-04-13T13:00:08.015Z,6.09
2019-04-13T13:01:05.338Z,6.09
2019-04-13T13:02:58.240Z,6.18
2019-04-13T13:03:58.300Z,5.96
2019-04-13T13:05:51.172Z,6.03
2019-04-13T13:06:51.150Z,6.03
2019-04-13T13:08:44.053Z,6.11
2019-04-13T13:09:44.057Z,6.28
2019-04-13T13:11:36.963Z,6.46
2019-04-13T13:12:36.967Z,6.56
2019-04-13T13:14:32.523Z,6.71
2019-04-13T13:15:29.876Z,6.76
2019-04-13T13:17:22.776Z,6.81
2019-04-13T13:18:26.127Z,6.92
2019-04-13T13:20:17.059Z,6.76
2019-04-13T13:21:15.684Z,6.79
2019-04-13T13:23:09.958Z,6.76
2019-04-13T13:24:08.589Z,6.88
2019-04-13T13:26:01.492Z,6.95
2019-04-13T13:27:02.763Z,6.92
2019-04-13T13:28:54.394Z,6.94
2019-04-13T13:29:54.402Z,7.15
2019-04-13T13:31:47.304Z,7.16
2019-04-13T13:32:47.307Z,7.23
2019-04-13T13:34:40.206Z,7.30
2019-04-13T13:35:40.214Z,7.27
2019-04-13T13:37:33.120Z,7.37
2019-04-13T13:38:33.122Z,7.43
2019-04-13T13:40:31.034Z,7.52
2019-04-13T13:41:26.029Z,7.75
2019-04-13T13:43:18.940Z,7.82
2019-04-13T13:44:19.911Z,7.95
2019-04-13T13:46:13.852Z,8.02
2019-04-13T13:47:11.848Z,8.04
2019-04-13T13:49:04.746Z,7.80
2019-04-13T13:50:04.755Z,7.74
2019-04-13T13:52:01.316Z,7.74
2019-04-13T13:52:57.670Z,7.67
2019-04-13T13:54:50.565Z,7.63
2019-04-13T13:55:50.573Z,7.63
2019-04-13T13:57:43.481Z,7.64
2019-04-13T13:58:43.484Z,7.68
2019-04-13T14:00:36.384Z,7.98
2019-04-13T14:01:36.397Z,8.10
2019-04-13T14:03:29.301Z,8.34
2019-04-13T14:04:29.303Z,8.48
2019-04-13T14:06:22.208Z,8.70
2019-04-13T14:07:22.212Z,8.65
2019-04-13T14:09:15.117Z,8.65
2019-04-13T14:10:15.134Z,8.55
2019-04-13T14:12:09.341Z,8.33
2019-04-13T14:13:08.029Z,8.25
2019-04-13T14:15:00.927Z,7.86
2019-04-13T14:16:00.938Z,7.72
2019-04-13T14:17:55.550Z,7.50
2019-04-13T14:18:57.197Z,7.43
2019-04-13T14:20:46.751Z,7.16
2019-04-13T14:21:46.761Z,7.03
2019-04-13T14:23:39.658Z,7.10
2019-04-13T14:24:39.665Z,7.05
2019-04-13T14:26:32.570Z,7.13
2019-04-13T14:27:32.574Z,7.10
2019-04-13T14:29:25.473Z,7.24
2019-04-13T14:30:25.482Z,7.23
2019-04-13T14:32:18.385Z,7.42
2019-04-13T14:33:18.391Z,7.49
2019-04-13T14:35:11.285Z,7.60
2019-04-13T14:36:11.293Z,7.82
2019-04-13T14:38:04.193Z,8.05
2019-04-13T14:39:04.198Z,8.07
2019-04-13T14:40:57.103Z,8.19
2019-04-13T14:41:57.116Z,8.18
2019-04-13T14:43:52.843Z,8.25
2019-04-13T14:44:52.410Z,8.37
2019-04-13T14:46:43.141Z,8.34
2019-04-13T14:47:43.105Z,8.20
2019-04-13T14:49:36.003Z,8.12
2019-04-13T14:50:36.197Z,8.04
2019-04-13T14:52:29.408Z,7.92
2019-04-13T14:53:29.415Z,7.83
2019-04-13T14:55:22.311Z,7.83
2019-04-13T14:56:22.320Z,7.67
2019-04-13T14:58:15.223Z,7.61
2019-04-13T14:59:16.777Z,7.61
2019-04-13T15:01:08.129Z,7.71
2019-04-13T15:02:08.243Z,7.63
2019-04-13T15:04:01.040Z,7.82
2019-04-13T15:05:01.043Z,7.98
2019-04-13T15:06:54.874Z,8.07
2019-04-13T15:07:53.963Z,8.23
2019-04-13T15:09:46.851Z,8.48
2019-04-13T15:10:46.858Z,8.71
2019-04-13T15:12:39.763Z,8.65
2019-04-13T15:13:40.485Z,8.84
2019-04-13T15:15:36.539Z,8.96
2019-04-13T15:16:33.726Z,8.98
2019-04-13T15:18:26.049Z,9.02
2019-04-13T15:19:34.493Z,9.05
2019-04-13T15:21:19.974Z,8.63
2019-04-13T15:22:19.772Z,8.30
2019-04-13T15:24:13.496Z,7.89
2019-04-13T15:25:11.856Z,7.69
2019-04-13T15:27:07.446Z,7.09
2019-04-13T15:28:04.321Z,6.99
2019-04-13T15:29:57.223Z,6.44
2019-04-13T15:31:01.041Z,6.40
2019-04-13T15:32:50.128Z,6.12
2019-04-13T15:33:54.277Z,6.03
2019-04-13T15:35:46.285Z,5.86
2019-04-13T15:36:44.212Z,5.83
2019-04-13T15:38:35.944Z,5.63
2019-04-13T15:39:40.113Z,5.68
2019-04-13T15:41:36.235Z,5.63
2019-04-13T15:42:41.359Z,5.56
2019-04-13T15:44:22.055Z,5.65
2019-04-13T15:45:22.509Z,5.63
2019-04-13T15:47:16.915Z,5.58
2019-04-13T15:48:14.663Z,5.65
2019-04-13T15:50:07.570Z,5.60
2019-04-13T15:51:07.600Z,5.56
2019-04-13T15:53:01.757Z,5.40
2019-04-13T15:54:02.604Z,5.43
2019-04-13T15:55:54.603Z,5.48
2019-04-13T15:56:53.369Z,5.49
2019-04-13T15:58:46.699Z,5.64
2019-04-13T15:59:46.269Z,5.67
2019-04-13T16:01:41.264Z,5.74
2019-04-13T16:02:41.127Z,5.79
2019-04-13T16:04:33.066Z,5.94
2019-04-13T16:05:33.051Z,5.89
2019-04-13T16:07:25.784Z,5.93
2019-04-13T16:08:26.421Z,5.96
2019-04-13T16:10:18.417Z,6.06
2019-04-13T16:11:18.733Z,6.06
2019-04-13T16:13:11.395Z,6.18
2019-04-13T16:14:11.611Z,6.11
2019-04-13T16:16:05.162Z,6.17
2019-04-13T16:17:05.447Z,6.30
2019-04-13T16:18:58.246Z,6.34
2019-04-13T16:19:57.204Z,6.34
2019-04-13T16:21:50.101Z,6.44
2019-04-13T16:22:50.107Z,6.49
2019-04-13T16:24:43.921Z,6.44
2019-04-13T16:25:43.021Z,6.44
2019-04-13T16:27:35.913Z,6.59
2019-04-13T16:28:37.210Z,6.73
2019-04-13T16:30:28.819Z,6.71
2019-04-13T16:31:29.037Z,6.80
2019-04-13T16:33:21.738Z,6.87
2019-04-13T16:34:21.731Z,6.87
2019-04-13T16:36:16.269Z,6.97
2019-04-13T16:37:14.628Z,6.99
2019-04-13T16:39:14.772Z,6.95
2019-04-13T16:40:08.565Z,6.87
2019-04-13T16:42:05.769Z,6.89
2019-04-13T16:43:01.531Z,6.85
2019-04-13T16:44:53.961Z,6.91
2019-04-13T16:45:53.359Z,6.87
2019-04-13T16:47:47.366Z,6.94
2019-04-13T16:48:46.508Z,6.97
2019-04-13T16:50:39.172Z,7.06
2019-04-13T16:51:39.268Z,6.95
2019-04-13T16:53:32.986Z,7.03
2019-04-13T16:54:44.082Z,6.92
2019-04-13T16:56:25.236Z,6.97
2019-04-13T16:57:24.985Z,6.94
2019-04-13T16:59:18.380Z,7.09
2019-04-13T17:00:18.718Z,6.92
2019-04-13T17:02:11.282Z,6.95
2019-04-13T17:03:11.864Z,7.07
2019-04-13T17:05:05.113Z,7.13
2019-04-13T17:06:04.835Z,7.13
2019-04-13T17:07:57.098Z,7.15
2019-04-13T17:08:57.740Z,7.24
2019-04-13T17:10:50.034Z,7.23
2019-04-13T17:11:50.550Z,7.27
2019-04-13T17:13:43.345Z,7.30
2019-04-13T17:14:43.479Z,7.27
2019-04-13T17:16:36.258Z,7.27
2019-04-13T17:17:36.452Z,7.30
2019-04-13T17:19:28.727Z,7.28
2019-04-13T17:20:28.723Z,7.23
2019-04-13T17:22:21.799Z,7.16
2019-04-13T17:23:21.631Z,7.07
2019-04-13T17:25:16.245Z,6.77
2019-04-13T17:26:15.189Z,6.69
2019-04-13T17:28:14.046Z,6.30
2019-04-13T17:29:09.036Z,6.00
2019-04-13T17:31:01.302Z,5.72
2019-04-13T17:32:02.088Z,5.46
2019-04-13T17:33:54.229Z,5.12
2019-04-13T17:34:54.853Z,5.04
2019-04-13T17:36:47.793Z,5.02
2019-04-13T17:37:48.443Z,4.88
2019-04-13T17:39:41.027Z,4.92
2019-04-13T17:40:41.032Z,5.00
2019-04-13T17:42:39.801Z,5.09
2019-04-13T17:43:34.540Z,5.04
2019-04-13T17:45:28.226Z,5.02
2019-04-13T17:46:28.134Z,4.94
2019-04-13T17:48:20.993Z,5.00
2019-04-13T17:49:19.815Z,5.03
2019-04-13T17:51:12.639Z,4.99
2019-04-13T17:52:13.361Z,4.91
2019-04-13T17:54:06.118Z,4.85
2019-04-13T17:55:06.721Z,4.88
2019-04-13T17:56:59.225Z,4.77
2019-04-13T17:57:58.989Z,4.72
2019-04-13T17:59:51.341Z,4.77
2019-04-13T18:00:51.868Z,4.66
2019-04-13T18:02:44.235Z,4.55
2019-04-13T18:03:44.979Z,4.55
2019-04-13T18:05:37.969Z,4.59
2019-04-13T18:06:37.921Z,4.55
2019-04-13T18:08:40.399Z,4.55
2019-04-13T18:09:30.877Z,4.52
2019-04-13T18:11:23.999Z,4.51
2019-04-13T18:12:24.339Z,4.52
2019-04-13T18:14:16.283Z,4.52
2019-04-13T18:15:16.066Z,4.51
2019-04-13T18:17:09.478Z,4.44
2019-04-13T18:18:10.196Z,4.47
2019-04-13T18:20:03.078Z,4.51
2019-04-13T18:21:03.510Z,4.47
2019-04-13T18:22:56.039Z,4.52
2019-04-13T18:23:55.198Z,4.48
2019-04-13T18:25:52.563Z,4.52
2019-04-13T18:26:48.091Z,4.55
2019-04-13T18:28:42.193Z,4.58
2019-04-13T18:29:42.596Z,4.58
2019-04-13T18:31:35.700Z,4.58
2019-04-13T18:32:34.385Z,4.55
2019-04-13T18:34:29.866Z,4.59
2019-04-13T18:35:27.647Z,4.66
2019-04-13T18:37:20.678Z,4.62
2019-04-13T18:38:21.161Z,4.52
2019-04-13T18:40:13.699Z,4.66
2019-04-13T18:41:14.458Z,4.69
2019-04-13T18:43:12.593Z,4.66
2019-04-13T18:44:07.269Z,4.73
2019-04-13T18:46:01.727Z,4.75
2019-04-13T18:46:59.380Z,4.84
2019-04-13T18:48:53.188Z,4.84
2019-04-13T18:49:53.216Z,4.75
2019-04-13T18:51:46.397Z,4.85
2019-04-13T18:52:46.612Z,4.77
2019-04-13T18:54:39.071Z,4.78
2019-04-13T18:55:39.076Z,4.88
2019-04-13T18:57:31.979Z,4.84
2019-04-13T18:58:31.977Z,4.82
2019-04-13T19:00:25.659Z,4.73
2019-04-13T19:01:25.152Z,4.80
2019-04-13T19:03:17.773Z,4.85
2019-04-13T19:04:17.782Z,4.72
2019-04-13T19:06:11.175Z,4.72
2019-04-13T19:07:11.175Z,4.84
2019-04-13T19:09:04.067Z,4.75
2019-04-13T19:10:04.079Z,4.77